sensor_id;sensor_type;location;lat;lon;timestamp;P1;durP1;ratioP1;P2;durP2;ratioP2
4202;SDS011;2115;51.038;7.006;2023-07-22T00:02:02;670.77;;;250.20;;
4202;SDS011;2115;51.038;7.006;2023-07-22T00:04:28;672.47;;;257.53;;
4202;SDS011;2115;51.038;7.006;2023-07-22T00:06:53;659.30;;;238.00;;
4202;SDS011;2115;51.038;7.006;2023-07-22T00:09:18;658.60;;;244.73;;
4202;SDS011;2115;51.038;7.006;2023-07-22T00:11:44;668.40;;;244.07;;
4202;SDS011;2115;51.038;7.006;2023-07-22T00:14:09;659.20;;;240.03;;
4202;SDS011;2115;51.038;7.006;2023-07-22T00:16:35;659.40;;;245.90;;
4202;SDS011;2115;51.038;7.006;2023-07-22T00:19:00;683.63;;;267.70;;
4202;SDS011;2115;51.038;7.006;2023-07-22T00:21:26;673.87;;;253.67;;
4202;SDS011;2115;51.038;7.006;2023-07-22T00:23:51;673.83;;;258.27;;
4202;SDS011;2115;51.038;7.006;2023-07-22T00:26:16;676.47;;;251.53;;
4202;SDS011;2115;51.038;7.006;2023-07-22T00:28:42;673.67;;;238.60;;
4202;SDS011;2115;51.038;7.006;2023-07-22T00:31:08;677.17;;;248.10;;
4202;SDS011;2115;51.038;7.006;2023-07-22T00:33:34;668.93;;;238.23;;
4202;SDS011;2115;51.038;7.006;2023-07-22T00:35:59;662.50;;;230.53;;
4202;SDS011;2115;51.038;7.006;2023-07-22T00:38:24;656.93;;;231.47;;
4202;SDS011;2115;51.038;7.006;2023-07-22T00:40:50;654.57;;;224.87;;
4202;SDS011;2115;51.038;7.006;2023-07-22T00:43:15;657.87;;;222.83;;
4202;SDS011;2115;51.038;7.006;2023-07-22T00:45:41;652.47;;;224.10;;
4202;SDS011;2115;51.038;7.006;2023-07-22T00:48:07;651.13;;;216.67;;
4202;SDS011;2115;51.038;7.006;2023-07-22T00:50:33;655.03;;;225.43;;
4202;SDS011;2115;51.038;7.006;2023-07-22T00:52:58;660.50;;;226.90;;
4202;SDS011;2115;51.038;7.006;2023-07-22T00:55:24;658.00;;;228.00;;
4202;SDS011;2115;51.038;7.006;2023-07-22T00:57:50;658.97;;;234.17;;
4202;SDS011;2115;51.038;7.006;2023-07-22T01:00:15;660.40;;;234.87;;
4202;SDS011;2115;51.038;7.006;2023-07-22T01:02:41;662.40;;;225.83;;
4202;SDS011;2115;51.038;7.006;2023-07-22T01:05:08;652.70;;;221.37;;
4202;SDS011;2115;51.038;7.006;2023-07-22T01:07:35;653.40;;;217.33;;
4202;SDS011;2115;51.038;7.006;2023-07-22T01:10:01;655.93;;;222.00;;
4202;SDS011;2115;51.038;7.006;2023-07-22T01:12:26;653.67;;;231.33;;
4202;SDS011;2115;51.038;7.006;2023-07-22T01:14:52;656.10;;;224.03;;
4202;SDS011;2115;51.038;7.006;2023-07-22T01:17:17;658.23;;;227.67;;
4202;SDS011;2115;51.038;7.006;2023-07-22T01:19:44;663.17;;;224.20;;
4202;SDS011;2115;51.038;7.006;2023-07-22T01:22:09;660.20;;;226.07;;
4202;SDS011;2115;51.038;7.006;2023-07-22T01:24:36;655.23;;;220.03;;
4202;SDS011;2115;51.038;7.006;2023-07-22T01:27:02;642.63;;;206.20;;
4202;SDS011;2115;51.038;7.006;2023-07-22T01:29:28;649.00;;;220.03;;
4202;SDS011;2115;51.038;7.006;2023-07-22T01:31:54;644.93;;;210.17;;
4202;SDS011;2115;51.038;7.006;2023-07-22T01:34:20;643.67;;;211.67;;
4202;SDS011;2115;51.038;7.006;2023-07-22T01:36:46;650.90;;;224.63;;
4202;SDS011;2115;51.038;7.006;2023-07-22T01:39:12;644.17;;;218.60;;
4202;SDS011;2115;51.038;7.006;2023-07-22T01:41:39;648.70;;;212.53;;
4202;SDS011;2115;51.038;7.006;2023-07-22T01:44:04;638.97;;;214.17;;
4202;SDS011;2115;51.038;7.006;2023-07-22T01:46:30;642.47;;;219.07;;
4202;SDS011;2115;51.038;7.006;2023-07-22T01:48:55;642.43;;;211.27;;
4202;SDS011;2115;51.038;7.006;2023-07-22T01:51:21;645.83;;;225.70;;
4202;SDS011;2115;51.038;7.006;2023-07-22T01:53:46;639.50;;;214.73;;
4202;SDS011;2115;51.038;7.006;2023-07-22T01:56:11;634.17;;;203.97;;
4202;SDS011;2115;51.038;7.006;2023-07-22T01:58:37;643.47;;;214.20;;
4202;SDS011;2115;51.038;7.006;2023-07-22T02:01:02;649.37;;;214.20;;
4202;SDS011;2115;51.038;7.006;2023-07-22T02:03:28;648.57;;;218.67;;
4202;SDS011;2115;51.038;7.006;2023-07-22T02:05:53;655.03;;;229.73;;
4202;SDS011;2115;51.038;7.006;2023-07-22T02:08:19;650.67;;;225.73;;
4202;SDS011;2115;51.038;7.006;2023-07-22T02:10:44;635.63;;;204.77;;
4202;SDS011;2115;51.038;7.006;2023-07-22T02:13:10;642.40;;;221.67;;
4202;SDS011;2115;51.038;7.006;2023-07-22T02:15:36;644.93;;;220.10;;
4202;SDS011;2115;51.038;7.006;2023-07-22T02:18:01;640.13;;;218.80;;
4202;SDS011;2115;51.038;7.006;2023-07-22T02:20:27;631.03;;;195.90;;
4202;SDS011;2115;51.038;7.006;2023-07-22T02:22:54;633.37;;;204.70;;
4202;SDS011;2115;51.038;7.006;2023-07-22T02:25:19;633.60;;;202.13;;
4202;SDS011;2115;51.038;7.006;2023-07-22T02:27:45;646.73;;;217.30;;
4202;SDS011;2115;51.038;7.006;2023-07-22T02:30:11;634.37;;;207.30;;
4202;SDS011;2115;51.038;7.006;2023-07-22T02:32:37;633.77;;;209.27;;
4202;SDS011;2115;51.038;7.006;2023-07-22T02:35:05;634.87;;;202.93;;
4202;SDS011;2115;51.038;7.006;2023-07-22T02:37:32;635.03;;;209.87;;
4202;SDS011;2115;51.038;7.006;2023-07-22T02:39:57;631.40;;;205.10;;
4202;SDS011;2115;51.038;7.006;2023-07-22T02:42:23;628.53;;;187.43;;
4202;SDS011;2115;51.038;7.006;2023-07-22T02:44:48;636.67;;;221.67;;
4202;SDS011;2115;51.038;7.006;2023-07-22T02:47:13;638.07;;;215.17;;
4202;SDS011;2115;51.038;7.006;2023-07-22T02:49:39;628.67;;;203.23;;
4202;SDS011;2115;51.038;7.006;2023-07-22T02:52:05;629.87;;;199.87;;
4202;SDS011;2115;51.038;7.006;2023-07-22T02:54:31;637.83;;;193.77;;
4202;SDS011;2115;51.038;7.006;2023-07-22T02:56:57;628.67;;;208.17;;
4202;SDS011;2115;51.038;7.006;2023-07-22T02:59:22;633.57;;;216.87;;
4202;SDS011;2115;51.038;7.006;2023-07-22T03:01:49;636.17;;;206.00;;
4202;SDS011;2115;51.038;7.006;2023-07-22T03:04:14;633.70;;;207.93;;
4202;SDS011;2115;51.038;7.006;2023-07-22T03:06:40;631.27;;;195.33;;
4202;SDS011;2115;51.038;7.006;2023-07-22T03:09:07;653.43;;;236.10;;
4202;SDS011;2115;51.038;7.006;2023-07-22T03:11:32;640.13;;;228.93;;
4202;SDS011;2115;51.038;7.006;2023-07-22T03:13:59;643.77;;;238.27;;
4202;SDS011;2115;51.038;7.006;2023-07-22T03:16:24;641.07;;;220.70;;
4202;SDS011;2115;51.038;7.006;2023-07-22T03:18:50;661.83;;;301.33;;
4202;SDS011;2115;51.038;7.006;2023-07-22T03:21:15;656.00;;;279.43;;
4202;SDS011;2115;51.038;7.006;2023-07-22T03:23:41;659.33;;;284.53;;
4202;SDS011;2115;51.038;7.006;2023-07-22T03:26:06;648.80;;;274.30;;
4202;SDS011;2115;51.038;7.006;2023-07-22T03:28:31;648.97;;;271.53;;
4202;SDS011;2115;51.038;7.006;2023-07-22T03:30:57;646.27;;;270.03;;
4202;SDS011;2115;51.038;7.006;2023-07-22T03:33:22;646.57;;;257.80;;
4202;SDS011;2115;51.038;7.006;2023-07-22T03:35:47;638.70;;;224.60;;
4202;SDS011;2115;51.038;7.006;2023-07-22T03:38:13;645.77;;;245.40;;
4202;SDS011;2115;51.038;7.006;2023-07-22T03:40:38;639.63;;;232.23;;
4202;SDS011;2115;51.038;7.006;2023-07-22T03:43:04;642.70;;;235.53;;
4202;SDS011;2115;51.038;7.006;2023-07-22T03:45:50;627.80;;;212.80;;
4202;SDS011;2115;51.038;7.006;2023-07-22T03:48:15;639.40;;;231.93;;
4202;SDS011;2115;51.038;7.006;2023-07-22T03:50:42;646.30;;;223.37;;
4202;SDS011;2115;51.038;7.006;2023-07-22T03:53:07;626.77;;;228.03;;
4202;SDS011;2115;51.038;7.006;2023-07-22T03:55:33;621.27;;;198.33;;
4202;SDS011;2115;51.038;7.006;2023-07-22T03:57:58;627.87;;;225.10;;
4202;SDS011;2115;51.038;7.006;2023-07-22T04:00:24;622.87;;;216.87;;
4202;SDS011;2115;51.038;7.006;2023-07-22T04:02:49;628.53;;;217.33;;
4202;SDS011;2115;51.038;7.006;2023-07-22T04:05:15;625.60;;;220.63;;
4202;SDS011;2115;51.038;7.006;2023-07-22T04:07:40;631.87;;;220.30;;
4202;SDS011;2115;51.038;7.006;2023-07-22T04:10:06;634.47;;;213.30;;
4202;SDS011;2115;51.038;7.006;2023-07-22T04:12:31;621.97;;;215.67;;
4202;SDS011;2115;51.038;7.006;2023-07-22T04:14:57;622.57;;;196.27;;
4202;SDS011;2115;51.038;7.006;2023-07-22T04:17:22;619.40;;;200.07;;
4202;SDS011;2115;51.038;7.006;2023-07-22T04:19:48;627.97;;;227.23;;
4202;SDS011;2115;51.038;7.006;2023-07-22T04:22:13;633.63;;;205.23;;
4202;SDS011;2115;51.038;7.006;2023-07-22T04:24:38;625.80;;;198.47;;
4202;SDS011;2115;51.038;7.006;2023-07-22T04:27:04;619.50;;;201.63;;
4202;SDS011;2115;51.038;7.006;2023-07-22T04:29:31;619.67;;;208.53;;
4202;SDS011;2115;51.038;7.006;2023-07-22T04:31:59;619.57;;;206.30;;
4202;SDS011;2115;51.038;7.006;2023-07-22T04:34:31;622.70;;;217.60;;
4202;SDS011;2115;51.038;7.006;2023-07-22T04:36:57;622.70;;;210.73;;
4202;SDS011;2115;51.038;7.006;2023-07-22T04:39:23;620.73;;;202.93;;
4202;SDS011;2115;51.038;7.006;2023-07-22T04:41:48;628.33;;;213.57;;
4202;SDS011;2115;51.038;7.006;2023-07-22T04:44:14;620.23;;;206.60;;
4202;SDS011;2115;51.038;7.006;2023-07-22T04:46:39;623.37;;;213.17;;
4202;SDS011;2115;51.038;7.006;2023-07-22T04:49:05;618.97;;;207.90;;
4202;SDS011;2115;51.038;7.006;2023-07-22T04:51:31;624.13;;;218.27;;
4202;SDS011;2115;51.038;7.006;2023-07-22T04:53:57;619.43;;;209.03;;
4202;SDS011;2115;51.038;7.006;2023-07-22T04:56:22;627.77;;;226.13;;
4202;SDS011;2115;51.038;7.006;2023-07-22T04:58:47;631.40;;;232.87;;
4202;SDS011;2115;51.038;7.006;2023-07-22T05:01:14;628.03;;;224.57;;
4202;SDS011;2115;51.038;7.006;2023-07-22T05:03:40;629.50;;;219.87;;
4202;SDS011;2115;51.038;7.006;2023-07-22T05:06:05;624.20;;;218.80;;
4202;SDS011;2115;51.038;7.006;2023-07-22T05:08:31;620.37;;;205.60;;
4202;SDS011;2115;51.038;7.006;2023-07-22T05:10:56;625.53;;;220.87;;
4202;SDS011;2115;51.038;7.006;2023-07-22T05:13:21;623.33;;;216.13;;
4202;SDS011;2115;51.038;7.006;2023-07-22T05:15:47;631.37;;;219.23;;
4202;SDS011;2115;51.038;7.006;2023-07-22T05:18:12;627.87;;;232.07;;
4202;SDS011;2115;51.038;7.006;2023-07-22T05:20:38;625.70;;;224.47;;
4202;SDS011;2115;51.038;7.006;2023-07-22T05:23:04;627.17;;;219.53;;
4202;SDS011;2115;51.038;7.006;2023-07-22T05:25:29;627.10;;;233.10;;
4202;SDS011;2115;51.038;7.006;2023-07-22T05:27:55;629.40;;;221.20;;
4202;SDS011;2115;51.038;7.006;2023-07-22T05:30:20;627.37;;;217.70;;
4202;SDS011;2115;51.038;7.006;2023-07-22T05:32:46;634.20;;;225.43;;
4202;SDS011;2115;51.038;7.006;2023-07-22T05:35:11;626.97;;;232.70;;
4202;SDS011;2115;51.038;7.006;2023-07-22T05:37:37;636.83;;;242.17;;
4202;SDS011;2115;51.038;7.006;2023-07-22T05:40:02;627.57;;;226.83;;
4202;SDS011;2115;51.038;7.006;2023-07-22T05:42:28;635.43;;;239.30;;
4202;SDS011;2115;51.038;7.006;2023-07-22T05:44:57;633.10;;;228.10;;
4202;SDS011;2115;51.038;7.006;2023-07-22T05:47:23;629.27;;;242.10;;
4202;SDS011;2115;51.038;7.006;2023-07-22T05:49:49;633.70;;;240.73;;
4202;SDS011;2115;51.038;7.006;2023-07-22T05:52:29;626.30;;;228.10;;
4202;SDS011;2115;51.038;7.006;2023-07-22T05:54:54;633.93;;;244.70;;
4202;SDS011;2115;51.038;7.006;2023-07-22T05:57:19;631.27;;;237.27;;
4202;SDS011;2115;51.038;7.006;2023-07-22T05:59:45;631.87;;;239.77;;
4202;SDS011;2115;51.038;7.006;2023-07-22T06:02:12;632.27;;;237.87;;
4202;SDS011;2115;51.038;7.006;2023-07-22T06:04:38;638.03;;;239.23;;
4202;SDS011;2115;51.038;7.006;2023-07-22T06:07:04;638.43;;;239.53;;
4202;SDS011;2115;51.038;7.006;2023-07-22T06:09:29;630.47;;;244.63;;
4202;SDS011;2115;51.038;7.006;2023-07-22T06:11:54;635.50;;;253.27;;
4202;SDS011;2115;51.038;7.006;2023-07-22T06:14:20;643.70;;;252.70;;
4202;SDS011;2115;51.038;7.006;2023-07-22T06:16:45;649.37;;;266.27;;
4202;SDS011;2115;51.038;7.006;2023-07-22T06:19:11;639.17;;;268.60;;
4202;SDS011;2115;51.038;7.006;2023-07-22T06:21:36;636.73;;;265.30;;
4202;SDS011;2115;51.038;7.006;2023-07-22T06:24:02;639.50;;;259.57;;
4202;SDS011;2115;51.038;7.006;2023-07-22T06:26:27;646.37;;;279.43;;
4202;SDS011;2115;51.038;7.006;2023-07-22T06:28:52;640.07;;;271.27;;
4202;SDS011;2115;51.038;7.006;2023-07-22T06:31:18;642.57;;;273.93;;
4202;SDS011;2115;51.038;7.006;2023-07-22T06:33:43;653.23;;;273.50;;
4202;SDS011;2115;51.038;7.006;2023-07-22T06:36:09;649.17;;;279.97;;
4202;SDS011;2115;51.038;7.006;2023-07-22T06:38:34;649.77;;;300.07;;
4202;SDS011;2115;51.038;7.006;2023-07-22T06:40:59;651.17;;;277.63;;
4202;SDS011;2115;51.038;7.006;2023-07-22T06:43:25;648.03;;;279.90;;
4202;SDS011;2115;51.038;7.006;2023-07-22T06:45:50;652.70;;;296.87;;
4202;SDS011;2115;51.038;7.006;2023-07-22T06:48:16;650.47;;;293.50;;
4202;SDS011;2115;51.038;7.006;2023-07-22T06:50:49;680.60;;;310.03;;
4202;SDS011;2115;51.038;7.006;2023-07-22T06:53:15;656.77;;;321.73;;
4202;SDS011;2115;51.038;7.006;2023-07-22T06:55:47;664.73;;;332.67;;
4202;SDS011;2115;51.038;7.006;2023-07-22T06:58:14;658.33;;;316.33;;
4202;SDS011;2115;51.038;7.006;2023-07-22T07:00:39;656.63;;;320.73;;
4202;SDS011;2115;51.038;7.006;2023-07-22T07:03:06;661.87;;;332.73;;
4202;SDS011;2115;51.038;7.006;2023-07-22T07:05:32;665.57;;;333.63;;
4202;SDS011;2115;51.038;7.006;2023-07-22T07:07:57;660.80;;;323.07;;
4202;SDS011;2115;51.038;7.006;2023-07-22T07:10:22;670.07;;;353.77;;
4202;SDS011;2115;51.038;7.006;2023-07-22T07:12:48;675.20;;;351.30;;
4202;SDS011;2115;51.038;7.006;2023-07-22T07:15:13;667.27;;;340.33;;
4202;SDS011;2115;51.038;7.006;2023-07-22T07:17:40;671.70;;;366.20;;
4202;SDS011;2115;51.038;7.006;2023-07-22T07:20:06;668.53;;;350.97;;
4202;SDS011;2115;51.038;7.006;2023-07-22T07:22:32;669.23;;;346.57;;
4202;SDS011;2115;51.038;7.006;2023-07-22T07:25:00;669.27;;;356.43;;
4202;SDS011;2115;51.038;7.006;2023-07-22T07:27:27;704.47;;;377.60;;
4202;SDS011;2115;51.038;7.006;2023-07-22T07:29:53;673.77;;;373.60;;
4202;SDS011;2115;51.038;7.006;2023-07-22T07:32:19;671.40;;;363.53;;
4202;SDS011;2115;51.038;7.006;2023-07-22T07:34:46;680.47;;;370.73;;
4202;SDS011;2115;51.038;7.006;2023-07-22T07:37:47;686.50;;;388.20;;
4202;SDS011;2115;51.038;7.006;2023-07-22T07:40:14;668.50;;;364.03;;
4202;SDS011;2115;51.038;7.006;2023-07-22T07:42:40;674.33;;;359.37;;
4202;SDS011;2115;51.038;7.006;2023-07-22T07:45:05;679.43;;;386.90;;
4202;SDS011;2115;51.038;7.006;2023-07-22T07:47:33;687.60;;;395.13;;
4202;SDS011;2115;51.038;7.006;2023-07-22T07:49:58;684.87;;;398.47;;
4202;SDS011;2115;51.038;7.006;2023-07-22T07:52:24;672.90;;;384.20;;
4202;SDS011;2115;51.038;7.006;2023-07-22T07:54:52;675.37;;;390.70;;
4202;SDS011;2115;51.038;7.006;2023-07-22T07:57:19;678.80;;;387.03;;
4202;SDS011;2115;51.038;7.006;2023-07-22T07:59:45;673.43;;;391.83;;
4202;SDS011;2115;51.038;7.006;2023-07-22T08:02:10;682.67;;;386.00;;
4202;SDS011;2115;51.038;7.006;2023-07-22T08:04:37;698.67;;;415.60;;
4202;SDS011;2115;51.038;7.006;2023-07-22T08:07:09;674.03;;;379.30;;
4202;SDS011;2115;51.038;7.006;2023-07-22T08:09:34;681.23;;;381.87;;
4202;SDS011;2115;51.038;7.006;2023-07-22T08:12:00;673.10;;;403.40;;
4202;SDS011;2115;51.038;7.006;2023-07-22T08:14:26;682.87;;;394.07;;
4202;SDS011;2115;51.038;7.006;2023-07-22T08:16:53;682.97;;;405.87;;
4202;SDS011;2115;51.038;7.006;2023-07-22T08:19:18;683.00;;;412.90;;
4202;SDS011;2115;51.038;7.006;2023-07-22T08:21:44;696.93;;;408.07;;
4202;SDS011;2115;51.038;7.006;2023-07-22T08:24:09;694.30;;;395.63;;
4202;SDS011;2115;51.038;7.006;2023-07-22T08:26:35;686.70;;;408.57;;
4202;SDS011;2115;51.038;7.006;2023-07-22T08:29:00;674.73;;;373.63;;
4202;SDS011;2115;51.038;7.006;2023-07-22T08:31:26;684.37;;;393.63;;
4202;SDS011;2115;51.038;7.006;2023-07-22T08:33:51;683.40;;;388.73;;
4202;SDS011;2115;51.038;7.006;2023-07-22T08:36:17;689.03;;;393.43;;
4202;SDS011;2115;51.038;7.006;2023-07-22T08:38:42;692.70;;;399.33;;
4202;SDS011;2115;51.038;7.006;2023-07-22T08:41:08;688.43;;;418.17;;
4202;SDS011;2115;51.038;7.006;2023-07-22T08:43:35;692.73;;;410.67;;
4202;SDS011;2115;51.038;7.006;2023-07-22T08:46:04;692.67;;;434.07;;
4202;SDS011;2115;51.038;7.006;2023-07-22T08:48:31;704.03;;;452.83;;
4202;SDS011;2115;51.038;7.006;2023-07-22T08:51:17;700.37;;;461.73;;
4202;SDS011;2115;51.038;7.006;2023-07-22T08:53:44;717.03;;;476.37;;
4202;SDS011;2115;51.038;7.006;2023-07-22T08:56:10;693.90;;;461.37;;
4202;SDS011;2115;51.038;7.006;2023-07-22T08:58:36;694.23;;;461.30;;
4202;SDS011;2115;51.038;7.006;2023-07-22T09:01:01;701.33;;;465.77;;
4202;SDS011;2115;51.038;7.006;2023-07-22T09:03:27;690.30;;;451.57;;
4202;SDS011;2115;51.038;7.006;2023-07-22T09:05:53;698.33;;;463.37;;
4202;SDS011;2115;51.038;7.006;2023-07-22T09:08:19;689.17;;;441.37;;
4202;SDS011;2115;51.038;7.006;2023-07-22T09:10:45;707.67;;;444.37;;
4202;SDS011;2115;51.038;7.006;2023-07-22T09:13:12;695.53;;;433.20;;
4202;SDS011;2115;51.038;7.006;2023-07-22T09:15:39;705.93;;;452.27;;
4202;SDS011;2115;51.038;7.006;2023-07-22T09:18:05;691.40;;;429.47;;
4202;SDS011;2115;51.038;7.006;2023-07-22T09:20:31;707.07;;;459.97;;
4202;SDS011;2115;51.038;7.006;2023-07-22T09:22:58;704.70;;;449.87;;
4202;SDS011;2115;51.038;7.006;2023-07-22T09:25:24;706.43;;;459.53;;
4202;SDS011;2115;51.038;7.006;2023-07-22T09:27:52;712.67;;;493.97;;
4202;SDS011;2115;51.038;7.006;2023-07-22T09:30:24;710.13;;;504.40;;
4202;SDS011;2115;51.038;7.006;2023-07-22T09:32:50;727.13;;;585.90;;
4202;SDS011;2115;51.038;7.006;2023-07-22T09:35:17;730.97;;;592.70;;
4202;SDS011;2115;51.038;7.006;2023-07-22T09:37:43;760.77;;;640.23;;
4202;SDS011;2115;51.038;7.006;2023-07-22T09:40:27;729.87;;;579.17;;
4202;SDS011;2115;51.038;7.006;2023-07-22T09:42:57;786.47;;;701.17;;
4202;SDS011;2115;51.038;7.006;2023-07-22T09:45:29;812.40;;;726.73;;
4202;SDS011;2115;51.038;7.006;2023-07-22T09:47:55;777.40;;;692.27;;
4202;SDS011;2115;51.038;7.006;2023-07-22T09:50:25;781.90;;;680.30;;
4202;SDS011;2115;51.038;7.006;2023-07-22T09:52:52;838.83;;;747.53;;
4202;SDS011;2115;51.038;7.006;2023-07-22T09:55:19;903.97;;;808.37;;
4202;SDS011;2115;51.038;7.006;2023-07-22T09:57:49;885.17;;;793.67;;
4202;SDS011;2115;51.038;7.006;2023-07-22T10:00:16;894.30;;;803.10;;
4202;SDS011;2115;51.038;7.006;2023-07-22T10:02:44;984.93;;;882.73;;
4202;SDS011;2115;51.038;7.006;2023-07-22T10:05:13;984.33;;;881.43;;
4202;SDS011;2115;51.038;7.006;2023-07-22T10:07:43;953.57;;;854.17;;
4202;SDS011;2115;51.038;7.006;2023-07-22T10:10:16;985.67;;;883.80;;
4202;SDS011;2115;51.038;7.006;2023-07-22T10:12:43;911.77;;;817.53;;
4202;SDS011;2115;51.038;7.006;2023-07-22T10:15:10;950.87;;;852.40;;
4202;SDS011;2115;51.038;7.006;2023-07-22T10:17:37;833.87;;;745.97;;
4202;SDS011;2115;51.038;7.006;2023-07-22T10:20:07;840.67;;;753.27;;
4202;SDS011;2115;51.038;7.006;2023-07-22T10:22:35;920.23;;;825.87;;
4202;SDS011;2115;51.038;7.006;2023-07-22T10:25:05;934.47;;;838.90;;
4202;SDS011;2115;51.038;7.006;2023-07-22T10:27:32;925.17;;;830.60;;
4202;SDS011;2115;51.038;7.006;2023-07-22T10:29:58;976.33;;;874.57;;
4202;SDS011;2115;51.038;7.006;2023-07-22T10:32:25;924.27;;;827.53;;
4202;SDS011;2115;51.038;7.006;2023-07-22T10:34:57;821.50;;;695.97;;
4202;SDS011;2115;51.038;7.006;2023-07-22T10:37:29;939.10;;;842.10;;
4202;SDS011;2115;51.038;7.006;2023-07-22T10:40:03;907.73;;;812.83;;
4202;SDS011;2115;51.038;7.006;2023-07-22T10:42:52;738.97;;;436.00;;
4202;SDS011;2115;51.038;7.006;2023-07-22T10:45:31;787.80;;;595.53;;
4202;SDS011;2115;51.038;7.006;2023-07-22T10:48:08;687.07;;;306.97;;
4202;SDS011;2115;51.038;7.006;2023-07-22T10:50:51;661.03;;;322.17;;
4202;SDS011;2115;51.038;7.006;2023-07-22T10:53:27;710.50;;;344.53;;
4202;SDS011;2115;51.038;7.006;2023-07-22T10:58:32;664.27;;;301.23;;
4202;SDS011;2115;51.038;7.006;2023-07-22T11:06:37;659.33;;;307.63;;
4202;SDS011;2115;51.038;7.006;2023-07-22T11:09:04;634.07;;;293.73;;
4202;SDS011;2115;51.038;7.006;2023-07-22T11:11:34;643.73;;;301.30;;
4202;SDS011;2115;51.038;7.006;2023-07-22T11:14:13;631.57;;;300.37;;
4202;SDS011;2115;51.038;7.006;2023-07-22T11:16:43;614.27;;;294.93;;
4202;SDS011;2115;51.038;7.006;2023-07-22T11:19:12;609.30;;;298.17;;
4202;SDS011;2115;51.038;7.006;2023-07-22T11:21:39;617.97;;;295.80;;
4202;SDS011;2115;51.038;7.006;2023-07-22T11:24:06;600.70;;;289.73;;
4202;SDS011;2115;51.038;7.006;2023-07-22T11:26:33;607.30;;;303.93;;
4202;SDS011;2115;51.038;7.006;2023-07-22T11:29:08;605.03;;;288.07;;
4202;SDS011;2115;51.038;7.006;2023-07-22T11:31:39;605.77;;;318.00;;
4202;SDS011;2115;51.038;7.006;2023-07-22T11:34:09;646.97;;;339.33;;
4202;SDS011;2115;51.038;7.006;2023-07-22T11:36:35;615.93;;;340.47;;
4202;SDS011;2115;51.038;7.006;2023-07-22T11:39:05;638.83;;;355.20;;
4202;SDS011;2115;51.038;7.006;2023-07-22T11:41:35;622.17;;;344.90;;
4202;SDS011;2115;51.038;7.006;2023-07-22T11:44:02;607.50;;;333.17;;
4202;SDS011;2115;51.038;7.006;2023-07-22T11:46:34;597.30;;;337.47;;
4202;SDS011;2115;51.038;7.006;2023-07-22T11:49:12;597.20;;;327.57;;
4202;SDS011;2115;51.038;7.006;2023-07-22T11:51:41;597.83;;;311.73;;
4202;SDS011;2115;51.038;7.006;2023-07-22T11:54:15;597.80;;;329.97;;
4202;SDS011;2115;51.038;7.006;2023-07-22T11:56:42;599.70;;;346.93;;
4202;SDS011;2115;51.038;7.006;2023-07-22T11:59:08;603.30;;;346.47;;
4202;SDS011;2115;51.038;7.006;2023-07-22T12:01:34;597.23;;;331.27;;
4202;SDS011;2115;51.038;7.006;2023-07-22T12:03:59;607.60;;;359.80;;
4202;SDS011;2115;51.038;7.006;2023-07-22T12:06:26;603.20;;;347.80;;
4202;SDS011;2115;51.038;7.006;2023-07-22T12:08:52;611.80;;;338.80;;
4202;SDS011;2115;51.038;7.006;2023-07-22T12:11:22;592.30;;;330.80;;
4202;SDS011;2115;51.038;7.006;2023-07-22T12:14:34;588.40;;;325.57;;
4202;SDS011;2115;51.038;7.006;2023-07-22T12:16:39;597.30;;;355.57;;
4202;SDS011;2115;51.038;7.006;2023-07-22T12:19:06;600.40;;;367.87;;
4202;SDS011;2115;51.038;7.006;2023-07-22T12:21:32;595.03;;;366.03;;
4202;SDS011;2115;51.038;7.006;2023-07-22T12:23:58;599.00;;;373.27;;
4202;SDS011;2115;51.038;7.006;2023-07-22T12:26:23;601.90;;;388.07;;
4202;SDS011;2115;51.038;7.006;2023-07-22T12:28:49;624.37;;;400.67;;
4202;SDS011;2115;51.038;7.006;2023-07-22T12:31:17;592.47;;;369.53;;
4202;SDS011;2115;51.038;7.006;2023-07-22T12:33:43;585.77;;;360.70;;
4202;SDS011;2115;51.038;7.006;2023-07-22T12:36:09;600.73;;;402.87;;
4202;SDS011;2115;51.038;7.006;2023-07-22T12:38:35;626.30;;;430.20;;
4202;SDS011;2115;51.038;7.006;2023-07-22T12:41:01;622.53;;;412.70;;
4202;SDS011;2115;51.038;7.006;2023-07-22T12:43:26;640.40;;;405.23;;
4202;SDS011;2115;51.038;7.006;2023-07-22T12:45:52;637.27;;;406.47;;
4202;SDS011;2115;51.038;7.006;2023-07-22T12:48:17;627.20;;;398.43;;
4202;SDS011;2115;51.038;7.006;2023-07-22T12:50:43;619.97;;;394.63;;
4202;SDS011;2115;51.038;7.006;2023-07-22T12:53:09;628.23;;;418.03;;
4202;SDS011;2115;51.038;7.006;2023-07-22T12:55:35;684.97;;;533.10;;
4202;SDS011;2115;51.038;7.006;2023-07-22T12:58:00;697.03;;;507.23;;
4202;SDS011;2115;51.038;7.006;2023-07-22T13:00:26;755.90;;;660.33;;
4202;SDS011;2115;51.038;7.006;2023-07-22T13:02:52;744.50;;;600.93;;
4202;SDS011;2115;51.038;7.006;2023-07-22T13:05:18;663.87;;;420.30;;
4202;SDS011;2115;51.038;7.006;2023-07-22T13:07:43;643.13;;;415.07;;
4202;SDS011;2115;51.038;7.006;2023-07-22T13:10:09;824.53;;;738.13;;
4202;SDS011;2115;51.038;7.006;2023-07-22T13:12:37;661.80;;;398.80;;
4202;SDS011;2115;51.038;7.006;2023-07-22T13:15:04;652.87;;;419.90;;
4202;SDS011;2115;51.038;7.006;2023-07-22T13:17:29;648.90;;;416.90;;
4202;SDS011;2115;51.038;7.006;2023-07-22T13:19:56;597.00;;;407.03;;
4202;SDS011;2115;51.038;7.006;2023-07-22T13:22:22;609.73;;;436.43;;
4202;SDS011;2115;51.038;7.006;2023-07-22T13:24:47;612.10;;;450.17;;
4202;SDS011;2115;51.038;7.006;2023-07-22T13:27:13;601.00;;;434.53;;
4202;SDS011;2115;51.038;7.006;2023-07-22T13:29:38;628.37;;;440.83;;
4202;SDS011;2115;51.038;7.006;2023-07-22T13:32:04;594.03;;;434.33;;
4202;SDS011;2115;51.038;7.006;2023-07-22T13:34:31;654.47;;;516.73;;
4202;SDS011;2115;51.038;7.006;2023-07-22T13:36:56;917.53;;;828.93;;
4202;SDS011;2115;51.038;7.006;2023-07-22T13:39:22;917.03;;;827.77;;
4202;SDS011;2115;51.038;7.006;2023-07-22T13:41:48;1084.37;;;979.77;;
4202;SDS011;2115;51.038;7.006;2023-07-22T13:44:14;1133.80;;;999.90;;
4202;SDS011;2115;51.038;7.006;2023-07-22T13:46:39;1153.17;;;999.90;;
4202;SDS011;2115;51.038;7.006;2023-07-22T13:49:05;1191.23;;;999.90;;
4202;SDS011;2115;51.038;7.006;2023-07-22T13:51:30;1005.83;;;910.50;;
4202;SDS011;2115;51.038;7.006;2023-07-22T13:53:56;989.03;;;891.90;;
4202;SDS011;2115;51.038;7.006;2023-07-22T13:56:23;1105.47;;;995.17;;
4202;SDS011;2115;51.038;7.006;2023-07-22T13:58:49;1094.00;;;991.23;;
4202;SDS011;2115;51.038;7.006;2023-07-22T14:01:14;1107.07;;;996.80;;
4202;SDS011;2115;51.038;7.006;2023-07-22T14:03:40;1094.07;;;989.17;;
4202;SDS011;2115;51.038;7.006;2023-07-22T14:06:05;1098.93;;;993.73;;
4202;SDS011;2115;51.038;7.006;2023-07-22T14:08:31;1110.30;;;997.43;;
4202;SDS011;2115;51.038;7.006;2023-07-22T14:10:56;1126.50;;;999.90;;
4202;SDS011;2115;51.038;7.006;2023-07-22T14:13:23;1143.23;;;999.90;;
4202;SDS011;2115;51.038;7.006;2023-07-22T14:15:49;1094.27;;;988.50;;
4202;SDS011;2115;51.038;7.006;2023-07-22T14:18:14;1070.37;;;974.07;;
4202;SDS011;2115;51.038;7.006;2023-07-22T14:20:45;1052.10;;;957.77;;
4202;SDS011;2115;51.038;7.006;2023-07-22T14:23:14;1063.13;;;967.23;;
4202;SDS011;2115;51.038;7.006;2023-07-22T14:25:39;1077.43;;;980.13;;
4202;SDS011;2115;51.038;7.006;2023-07-22T14:28:05;1113.93;;;999.90;;